createdAt,value
2018-12-17T00:00:08.219Z,13.90
2018-12-17T00:01:08.162Z,12.50
2018-12-17T00:02:08.198Z,22.20
2018-12-17T00:03:08.206Z,12.10
2018-12-17T00:04:08.189Z,21.90
2018-12-17T00:05:08.094Z,11.40
2018-12-17T00:06:08.189Z,16.00
2018-12-17T00:07:08.111Z,27.80
2018-12-17T00:08:08.061Z,36.70
2018-12-17T00:09:08.082Z,40.10
2018-12-17T00:10:08.062Z,40.10
2018-12-17T00:11:08.059Z,39.00
2018-12-17T00:12:08.092Z,29.40
2018-12-17T00:13:08.017Z,20.10
2018-12-17T00:14:08.228Z,13.10
2018-12-17T00:15:08.006Z,29.50
2018-12-17T00:16:07.997Z,33.80
2018-12-17T00:17:08.714Z,27.90
2018-12-17T00:18:07.991Z,43.90
2018-12-17T00:19:07.936Z,45.80
2018-12-17T00:20:07.936Z,39.00
2018-12-17T00:21:07.937Z,30.50
2018-12-17T00:22:07.995Z,41.70
2018-12-17T00:23:07.922Z,47.80
2018-12-17T00:24:07.923Z,27.70
2018-12-17T00:25:07.903Z,18.80
2018-12-17T00:26:07.932Z,35.80
2018-12-17T00:27:07.892Z,31.40
2018-12-17T00:28:08.382Z,25.30
2018-12-17T00:29:07.866Z,30.40
2018-12-17T00:30:07.862Z,18.20
2018-12-17T00:31:07.834Z,14.90
2018-12-17T00:32:07.817Z,23.40
2018-12-17T00:33:07.845Z,18.00
2018-12-17T00:34:07.824Z,16.20
2018-12-17T00:35:07.813Z,20.70
2018-12-17T00:36:07.791Z,15.30
2018-12-17T00:37:07.790Z,11.90
2018-12-17T00:38:07.806Z,20.70
2018-12-17T00:39:07.755Z,24.10
2018-12-17T00:40:07.749Z,21.20
2018-12-17T00:41:07.719Z,23.00
2018-12-17T00:42:07.765Z,19.20
2018-12-17T00:43:07.707Z,14.10
2018-12-17T00:44:07.712Z,24.00
2018-12-17T00:45:07.728Z,26.70
2018-12-17T00:46:07.669Z,24.30
2018-12-17T00:47:07.667Z,23.10
2018-12-17T00:48:07.672Z,19.70
2018-12-17T00:49:07.670Z,11.90
2018-12-17T00:50:07.639Z,13.00
2018-12-17T00:51:07.654Z,19.80
2018-12-17T00:52:07.651Z,11.50
2018-12-17T00:53:07.596Z,27.90
2018-12-17T00:54:07.606Z,13.00
2018-12-17T00:55:07.570Z,32.50
2018-12-17T00:56:07.573Z,34.00
2018-12-17T00:57:07.596Z,14.20
2018-12-17T00:58:07.547Z,19.00
2018-12-17T00:59:07.535Z,20.50
2018-12-17T01:00:07.548Z,32.00
2018-12-17T01:01:07.521Z,25.10
2018-12-17T01:02:07.542Z,12.20
2018-12-17T01:03:07.492Z,11.20
2018-12-17T01:04:07.485Z,17.30
2018-12-17T01:05:07.522Z,13.90
2018-12-17T01:06:07.476Z,21.80
2018-12-17T01:07:07.511Z,16.10
2018-12-17T01:08:07.456Z,21.50
2018-12-17T01:09:07.444Z,22.90
2018-12-17T01:10:07.427Z,21.00
2018-12-17T01:11:07.427Z,12.30
2018-12-17T01:12:07.397Z,15.60
2018-12-17T01:13:07.413Z,12.50
2018-12-17T01:14:07.381Z,18.20
2018-12-17T01:15:07.358Z,22.60
2018-12-17T01:16:07.357Z,19.90
2018-12-17T01:17:07.349Z,19.20
2018-12-17T01:18:07.355Z,23.70
2018-12-17T01:19:07.325Z,18.50
2018-12-17T01:20:07.337Z,10.20
2018-12-17T01:21:07.320Z,10.90
2018-12-17T01:22:07.307Z,9.80
2018-12-17T01:23:07.339Z,9.50
2018-12-17T01:24:07.256Z,9.20
2018-12-17T01:25:07.262Z,8.80
2018-12-17T01:26:07.245Z,8.50
2018-12-17T01:27:07.329Z,9.70
2018-12-17T01:28:07.278Z,9.90
2018-12-17T01:29:07.224Z,11.10
2018-12-17T01:30:07.215Z,11.40
2018-12-17T01:31:07.192Z,9.30
2018-12-17T01:32:07.190Z,10.50
2018-12-17T01:33:07.169Z,9.30
2018-12-17T01:34:07.198Z,9.00
2018-12-17T01:35:07.156Z,10.00
2018-12-17T01:36:07.141Z,9.90
2018-12-17T01:37:07.135Z,9.50
2018-12-17T01:38:07.123Z,9.80
2018-12-17T01:39:07.159Z,9.90
2018-12-17T01:40:07.117Z,9.50
2018-12-17T01:41:07.104Z,9.40
2018-12-17T01:42:07.074Z,9.20
2018-12-17T01:43:07.082Z,9.30
2018-12-17T01:44:07.078Z,10.00
2018-12-17T01:45:07.086Z,9.80
2018-12-17T01:46:07.046Z,10.20
2018-12-17T01:47:07.024Z,9.30
2018-12-17T01:48:07.013Z,9.50
2018-12-17T01:49:07.014Z,10.30
2018-12-17T01:50:06.958Z,12.50
2018-12-17T01:51:07.043Z,12.50
2018-12-17T01:52:06.977Z,10.80
2018-12-17T01:53:06.969Z,10.80
2018-12-17T01:54:06.959Z,10.60
2018-12-17T01:55:06.936Z,9.80
2018-12-17T01:56:06.927Z,9.80
2018-12-17T01:57:06.973Z,10.90
2018-12-17T01:58:06.900Z,10.60
2018-12-17T01:59:06.892Z,12.70
2018-12-17T02:00:06.885Z,11.80
2018-12-17T02:01:06.877Z,10.40
2018-12-17T02:02:06.880Z,10.10
2018-12-17T02:03:06.905Z,10.60
2018-12-17T02:04:06.867Z,10.70
2018-12-17T02:05:06.830Z,9.80
2018-12-17T02:06:06.823Z,9.70
2018-12-17T02:07:06.778Z,10.20
2018-12-17T02:08:06.863Z,10.90
2018-12-17T02:09:06.777Z,11.10
2018-12-17T02:10:06.787Z,10.30
2018-12-17T02:11:06.769Z,10.40
2018-12-17T02:12:06.775Z,9.20
2018-12-17T02:13:06.758Z,10.20
2018-12-17T02:14:06.798Z,9.90
2018-12-17T02:15:06.733Z,9.90
2018-12-17T02:16:06.712Z,10.50
2018-12-17T02:17:06.703Z,10.00
2018-12-17T02:18:06.703Z,10.60
2018-12-17T02:19:06.705Z,10.60
2018-12-17T02:20:06.783Z,10.60
2018-12-17T02:21:06.671Z,10.10
2018-12-17T02:22:06.652Z,9.90
2018-12-17T02:23:06.646Z,9.70
2018-12-17T02:24:06.639Z,10.60
2018-12-17T02:25:06.622Z,11.00
2018-12-17T02:26:06.646Z,10.90
2018-12-17T02:27:06.600Z,10.20
2018-12-17T02:28:06.588Z,10.10
2018-12-17T02:29:06.573Z,9.70
2018-12-17T02:30:06.557Z,9.00
2018-12-17T02:31:06.548Z,9.70
2018-12-17T02:32:06.574Z,9.80
2018-12-17T02:33:06.533Z,10.20
2018-12-17T02:34:06.523Z,9.80
2018-12-17T02:35:06.514Z,10.80
2018-12-17T02:36:06.495Z,9.40
2018-12-17T02:37:06.479Z,9.80
2018-12-17T02:38:06.529Z,9.50
2018-12-17T02:39:06.492Z,10.10
2018-12-17T02:40:06.446Z,9.50
2018-12-17T02:41:06.406Z,9.90
2018-12-17T02:42:06.420Z,10.30
2018-12-17T02:43:06.386Z,10.00
2018-12-17T02:44:06.414Z,9.20
2018-12-17T02:45:06.442Z,10.20
2018-12-17T02:46:06.394Z,10.20
2018-12-17T02:47:06.408Z,10.70
2018-12-17T02:48:06.359Z,9.70
2018-12-17T02:49:06.363Z,9.80
2018-12-17T02:50:06.389Z,9.60
2018-12-17T02:51:06.344Z,10.90
2018-12-17T02:52:06.327Z,10.30
2018-12-17T02:53:06.312Z,9.60
2018-12-17T02:54:06.307Z,10.20
2018-12-17T02:55:06.371Z,10.00
2018-12-17T02:56:06.321Z,10.00
2018-12-17T02:57:06.265Z,10.40
2018-12-17T02:58:06.260Z,9.90
2018-12-17T02:59:06.256Z,9.70
2018-12-17T03:00:06.240Z,10.70
2018-12-17T03:01:06.277Z,10.70
2018-12-17T03:02:06.211Z,10.00
2018-12-17T03:03:06.205Z,9.80
2018-12-17T03:04:06.216Z,10.00
2018-12-17T03:05:06.191Z,11.00
2018-12-17T03:06:06.187Z,10.00
2018-12-17T03:07:06.216Z,10.00
2018-12-17T03:08:06.164Z,11.10
2018-12-17T03:09:06.140Z,9.90
2018-12-17T03:10:06.135Z,10.50
2018-12-17T03:11:06.170Z,9.70
2018-12-17T03:12:06.105Z,9.70
2018-12-17T03:13:06.098Z,10.40
2018-12-17T03:14:06.088Z,9.90
2018-12-17T03:15:06.087Z,9.60
2018-12-17T03:16:06.080Z,9.90
2018-12-17T03:17:06.087Z,10.10
2018-12-17T03:18:06.050Z,10.90
2018-12-17T03:19:06.041Z,10.40
2018-12-17T03:20:06.036Z,10.20
2018-12-17T03:21:06.016Z,9.60
2018-12-17T03:22:06.002Z,10.20
2018-12-17T03:23:06.063Z,10.00
2018-12-17T03:24:06.006Z,10.20
2018-12-17T03:25:05.970Z,9.90
2018-12-17T03:26:05.957Z,10.30
2018-12-17T03:27:05.954Z,10.10
2018-12-17T03:28:05.995Z,10.00
2018-12-17T03:29:05.926Z,10.70
2018-12-17T03:30:05.918Z,10.20
2018-12-17T03:31:05.912Z,9.20
2018-12-17T03:32:05.896Z,10.20
2018-12-17T03:33:05.868Z,9.00
2018-12-17T03:34:05.929Z,10.40
2018-12-17T03:35:05.876Z,10.80
2018-12-17T03:36:05.868Z,9.70
2018-12-17T03:37:05.886Z,9.80
2018-12-17T03:38:05.868Z,9.80
2018-12-17T03:39:05.839Z,10.10
2018-12-17T03:40:05.857Z,10.40
2018-12-17T03:41:05.797Z,10.80
2018-12-17T03:42:05.784Z,9.90
2018-12-17T03:43:05.779Z,9.60
2018-12-17T03:44:05.780Z,10.10
2018-12-17T03:45:05.759Z,10.00
2018-12-17T03:46:05.784Z,10.50
2018-12-17T03:47:05.751Z,10.20
2018-12-17T03:48:05.724Z,9.50
2018-12-17T03:49:05.731Z,10.40
2018-12-17T03:50:05.710Z,10.30
2018-12-17T03:51:05.873Z,10.10
2018-12-17T03:52:05.698Z,9.60
2018-12-17T03:53:05.687Z,8.90
2018-12-17T03:54:05.662Z,10.70
2018-12-17T03:55:06.319Z,10.30
2018-12-17T03:56:05.681Z,10.80
2018-12-17T03:57:05.731Z,10.60
2018-12-17T03:58:05.618Z,10.30
2018-12-17T03:59:05.599Z,9.70
2018-12-17T04:00:05.594Z,10.50
2018-12-17T04:01:06.338Z,10.00
2018-12-17T04:02:05.623Z,10.60
2018-12-17T04:03:06.339Z,9.60
2018-12-17T04:04:05.550Z,10.00
2018-12-17T04:05:05.590Z,10.40
2018-12-17T04:06:05.574Z,9.40
2018-12-17T04:07:05.627Z,10.20
2018-12-17T04:08:05.516Z,9.60
2018-12-17T04:09:05.500Z,9.00
2018-12-17T04:10:05.491Z,10.50
2018-12-17T04:11:05.481Z,10.30
2018-12-17T04:12:05.501Z,9.30
2018-12-17T04:13:05.454Z,9.60
2018-12-17T04:14:05.457Z,9.50
2018-12-17T04:15:05.441Z,9.70
2018-12-17T04:16:05.433Z,9.70
2018-12-17T04:17:05.482Z,9.80
2018-12-17T04:18:05.418Z,10.10
2018-12-17T04:19:05.386Z,9.50
2018-12-17T04:20:05.390Z,10.00
2018-12-17T04:21:05.382Z,9.60
2018-12-17T04:22:05.441Z,10.20
2018-12-17T04:23:05.401Z,10.00
2018-12-17T04:24:05.340Z,11.00
2018-12-17T04:25:05.329Z,10.80
2018-12-17T04:26:05.327Z,10.50
2018-12-17T04:27:05.357Z,11.30
2018-12-17T04:28:05.305Z,10.40
2018-12-17T04:29:06.992Z,11.30
2018-12-17T04:30:05.281Z,10.50
2018-12-17T04:31:05.266Z,10.30
2018-12-17T04:32:05.307Z,10.40
2018-12-17T04:33:05.250Z,9.70
2018-12-17T04:34:05.270Z,10.40
2018-12-17T04:35:05.237Z,10.80
2018-12-17T04:36:05.214Z,11.40
2018-12-17T04:37:05.201Z,10.50
2018-12-17T04:38:05.169Z,10.00
2018-12-17T04:39:05.185Z,10.00
2018-12-17T04:40:05.224Z,10.00
2018-12-17T04:41:05.168Z,9.40
2018-12-17T04:42:05.151Z,9.70
2018-12-17T04:43:05.142Z,10.20
2018-12-17T04:44:05.104Z,9.60
2018-12-17T04:45:05.181Z,9.90
2018-12-17T04:46:05.119Z,10.50
2018-12-17T04:47:05.085Z,10.70
2018-12-17T04:48:05.075Z,10.80
2018-12-17T04:49:05.080Z,9.80
2018-12-17T04:50:05.051Z,10.20
2018-12-17T04:51:05.106Z,10.60
2018-12-17T04:52:05.071Z,11.00
2018-12-17T04:53:05.038Z,10.60
2018-12-17T04:54:05.031Z,10.30
2018-12-17T04:55:05.021Z,12.30
2018-12-17T04:56:05.004Z,11.10
2018-12-17T04:57:04.988Z,10.40
2018-12-17T04:58:05.024Z,10.20
2018-12-17T04:59:04.961Z,12.40
2018-12-17T05:00:04.961Z,10.20
2018-12-17T05:01:04.952Z,9.50
2018-12-17T05:02:05.580Z,10.80
2018-12-17T05:03:04.919Z,10.10
2018-12-17T05:04:04.953Z,10.30
2018-12-17T05:05:04.911Z,10.30
2018-12-17T05:06:04.904Z,10.30
2018-12-17T05:07:04.886Z,12.10
2018-12-17T05:08:04.900Z,10.60
2018-12-17T05:09:04.845Z,12.30
2018-12-17T05:10:04.892Z,10.10
2018-12-17T05:11:04.836Z,9.70
2018-12-17T05:12:04.832Z,10.60
2018-12-17T05:13:04.939Z,10.50
2018-12-17T05:14:04.803Z,10.50
2018-12-17T05:15:04.843Z,10.10
2018-12-17T05:16:04.782Z,10.90
2018-12-17T05:17:04.774Z,10.50
2018-12-17T05:18:04.770Z,9.50
2018-12-17T05:19:04.748Z,9.80
2018-12-17T05:20:04.750Z,10.20
2018-12-17T05:21:04.774Z,9.70
2018-12-17T05:22:04.720Z,9.90
2018-12-17T05:23:04.719Z,9.50
2018-12-17T05:24:04.711Z,9.80
2018-12-17T05:25:04.695Z,10.10
2018-12-17T05:26:04.686Z,9.80
2018-12-17T05:27:04.683Z,10.00
2018-12-17T05:28:04.653Z,10.10
2018-12-17T05:29:04.620Z,10.40
2018-12-17T05:30:04.638Z,10.20
2018-12-17T05:31:04.624Z,10.50
2018-12-17T05:32:04.652Z,9.00
2018-12-17T05:33:04.605Z,9.70
2018-12-17T05:34:04.587Z,9.60
2018-12-17T05:35:04.586Z,9.10
2018-12-17T05:36:04.576Z,9.50
2018-12-17T05:37:04.569Z,10.70
2018-12-17T05:38:04.579Z,10.80
2018-12-17T05:39:04.518Z,9.90
2018-12-17T05:40:04.537Z,10.50
2018-12-17T05:41:04.518Z,10.70
2018-12-17T05:42:04.547Z,10.70
2018-12-17T05:43:04.497Z,10.20
2018-12-17T05:44:04.476Z,9.50
2018-12-17T05:45:04.483Z,9.30
2018-12-17T05:46:04.472Z,9.80
2018-12-17T05:47:04.455Z,9.80
2018-12-17T05:48:04.492Z,10.00
2018-12-17T05:49:04.433Z,10.20
2018-12-17T05:50:04.436Z,10.00
2018-12-17T05:51:04.415Z,9.20
2018-12-17T05:52:04.477Z,9.60
2018-12-17T05:53:04.422Z,9.90
2018-12-17T05:54:04.397Z,10.10
2018-12-17T05:55:04.376Z,10.50
2018-12-17T05:56:04.368Z,9.60
2018-12-17T05:57:04.354Z,9.40
2018-12-17T05:58:04.357Z,10.30
2018-12-17T05:59:04.398Z,10.60
2018-12-17T06:00:04.348Z,10.30
2018-12-17T06:01:04.307Z,10.10
2018-12-17T06:02:04.357Z,10.10
2018-12-17T06:03:04.283Z,10.10
2018-12-17T06:04:04.299Z,9.00
2018-12-17T06:05:04.383Z,10.00
2018-12-17T06:06:04.263Z,9.80
2018-12-17T06:07:04.251Z,9.50
2018-12-17T06:08:04.237Z,9.30
2018-12-17T06:09:04.230Z,10.10
2018-12-17T06:10:04.263Z,10.60
2018-12-17T06:11:04.223Z,9.70
2018-12-17T06:12:04.226Z,9.50
2018-12-17T06:13:04.221Z,9.60
2018-12-17T06:14:04.854Z,9.50
2018-12-17T06:15:04.188Z,9.40
2018-12-17T06:16:04.153Z,9.10
2018-12-17T06:17:04.186Z,10.20
2018-12-17T06:18:04.138Z,10.30
2018-12-17T06:19:04.090Z,9.50
2018-12-17T06:20:04.107Z,9.80
2018-12-17T06:21:04.111Z,10.40
2018-12-17T06:22:04.097Z,9.70
2018-12-17T06:23:04.140Z,9.90
2018-12-17T06:24:04.059Z,10.20
2018-12-17T06:25:04.077Z,9.60
2018-12-17T06:26:04.054Z,9.80
2018-12-17T06:27:04.082Z,10.50
2018-12-17T06:28:04.174Z,10.70
2018-12-17T06:29:04.032Z,10.30
2018-12-17T06:30:04.017Z,9.80
2018-12-17T06:31:04.006Z,10.30
2018-12-17T06:32:04.046Z,10.20
2018-12-17T06:33:03.943Z,10.70
2018-12-17T06:34:03.949Z,10.20
2018-12-17T06:35:03.917Z,10.20
2018-12-17T06:36:03.923Z,11.30
2018-12-17T06:37:03.906Z,10.20
2018-12-17T06:38:03.885Z,10.10
2018-12-17T06:39:03.897Z,10.90
2018-12-17T06:40:10.017Z,10.20
2018-12-17T06:41:04.866Z,10.60
2018-12-17T06:42:03.877Z,10.40
2018-12-17T06:43:03.840Z,10.70
2018-12-17T06:44:03.821Z,10.30
2018-12-17T06:45:03.813Z,10.60
2018-12-17T06:46:03.797Z,10.30
2018-12-17T06:47:03.808Z,10.80
2018-12-17T06:48:03.810Z,10.60
2018-12-17T06:49:03.770Z,9.30
2018-12-17T06:50:03.788Z,10.10
2018-12-17T06:51:03.792Z,10.30
2018-12-17T06:52:03.769Z,10.30
2018-12-17T06:53:03.726Z,10.20
2018-12-17T06:54:03.718Z,10.40
2018-12-17T06:55:03.708Z,10.30
2018-12-17T06:56:03.696Z,10.50
2018-12-17T06:57:03.681Z,10.60
2018-12-17T06:58:03.913Z,11.10
2018-12-17T06:59:03.658Z,9.30
2018-12-17T07:00:03.653Z,9.60
2018-12-17T07:01:03.644Z,9.90
2018-12-17T07:02:03.652Z,9.20
2018-12-17T07:03:03.880Z,10.20
2018-12-17T07:04:03.601Z,9.70
2018-12-17T07:05:03.593Z,9.90
2018-12-17T07:06:03.582Z,10.20
2018-12-17T07:07:03.593Z,10.60
2018-12-17T07:08:03.594Z,10.10
2018-12-17T07:09:03.555Z,10.00
2018-12-17T07:10:03.543Z,10.10
2018-12-17T07:11:03.526Z,10.90
2018-12-17T07:12:03.525Z,10.60
2018-12-17T07:13:03.554Z,9.70
2018-12-17T07:14:03.632Z,9.80
2018-12-17T07:15:03.536Z,9.50
2018-12-17T07:16:03.482Z,9.80
2018-12-17T07:17:03.464Z,11.00
2018-12-17T07:18:03.451Z,10.30
2018-12-17T07:19:03.477Z,10.40
2018-12-17T07:20:03.437Z,10.30
2018-12-17T07:21:03.445Z,9.90
2018-12-17T07:22:03.417Z,10.10
2018-12-17T07:23:03.405Z,9.90
2018-12-17T07:24:03.387Z,10.20
2018-12-17T07:25:03.409Z,10.40
2018-12-17T07:26:03.372Z,9.90
2018-12-17T07:27:03.359Z,10.80
2018-12-17T07:28:03.346Z,9.80
2018-12-17T07:29:03.335Z,10.50
2018-12-17T07:30:03.323Z,10.10
2018-12-17T07:31:03.356Z,9.80
2018-12-17T07:32:03.308Z,10.20
2018-12-17T07:33:03.295Z,10.30
2018-12-17T07:34:03.287Z,11.10
2018-12-17T07:35:03.274Z,10.20
2018-12-17T07:36:03.281Z,10.60
2018-12-17T07:37:03.352Z,10.90
2018-12-17T07:38:03.241Z,9.70
2018-12-17T07:39:03.226Z,9.40
2018-12-17T07:40:03.234Z,10.10
2018-12-17T07:41:03.210Z,9.50
2018-12-17T07:42:03.216Z,10.80
2018-12-17T07:43:03.204Z,10.00
2018-12-17T07:44:03.213Z,10.00
2018-12-17T07:45:03.168Z,9.70
2018-12-17T07:46:03.157Z,9.60
2018-12-17T07:47:03.146Z,10.10
2018-12-17T07:48:03.151Z,10.30
2018-12-17T07:49:03.119Z,10.00
2018-12-17T07:50:03.118Z,9.30
2018-12-17T07:51:03.099Z,10.00
2018-12-17T07:52:03.096Z,9.40
2018-12-17T07:53:03.117Z,10.50
2018-12-17T07:54:03.069Z,9.60
2018-12-17T07:55:03.075Z,10.00
2018-12-17T07:56:03.045Z,10.80
2018-12-17T07:57:03.032Z,9.80
2018-12-17T07:58:03.028Z,10.60
2018-12-17T07:59:03.043Z,11.00
2018-12-17T08:00:03.003Z,11.30
2018-12-17T08:01:02.991Z,10.40
2018-12-17T08:02:02.989Z,10.50
2018-12-17T08:03:02.970Z,11.00
2018-12-17T08:04:02.989Z,10.10
2018-12-17T08:05:02.956Z,11.10
2018-12-17T08:06:02.944Z,9.50
2018-12-17T08:07:02.970Z,11.30
2018-12-17T08:08:02.926Z,10.30
2018-12-17T08:09:02.932Z,11.80
2018-12-17T08:10:02.900Z,12.30
2018-12-17T08:11:02.884Z,11.00
2018-12-17T08:12:02.882Z,10.00
2018-12-17T08:13:02.870Z,10.60
2018-12-17T08:14:02.877Z,9.30
2018-12-17T08:15:02.845Z,10.10
2018-12-17T08:16:02.838Z,9.80
2018-12-17T08:17:02.824Z,9.80
2018-12-17T08:18:02.817Z,10.30
2018-12-17T08:19:02.837Z,9.70
2018-12-17T08:20:02.787Z,9.90
2018-12-17T08:21:02.780Z,9.90
2018-12-17T08:22:02.767Z,9.40
2018-12-17T08:23:02.757Z,9.60
2018-12-17T08:24:02.785Z,10.20
2018-12-17T08:25:02.740Z,10.10
2018-12-17T08:26:02.732Z,10.20
2018-12-17T08:27:02.719Z,9.90
2018-12-17T08:28:02.709Z,9.40
2018-12-17T08:29:02.693Z,9.40
2018-12-17T08:30:04.083Z,9.10
2018-12-17T08:31:02.677Z,9.00
2018-12-17T08:32:02.684Z,10.10
2018-12-17T08:33:02.650Z,10.10
2018-12-17T08:34:02.643Z,9.80
2018-12-17T08:35:02.661Z,9.50
2018-12-17T08:36:02.628Z,9.40
2018-12-17T08:37:02.616Z,9.90
2018-12-17T08:38:02.601Z,9.40
2018-12-17T08:39:02.590Z,10.40
2018-12-17T08:40:02.580Z,9.40
2018-12-17T08:41:10.648Z,9.60
2018-12-17T08:42:02.569Z,9.10
2018-12-17T08:43:02.548Z,9.60
2018-12-17T08:44:02.535Z,10.00
2018-12-17T08:45:02.520Z,10.80
2018-12-17T08:46:02.525Z,9.50
2018-12-17T08:47:02.544Z,10.00
2018-12-17T08:48:02.496Z,10.00
2018-12-17T08:49:02.482Z,10.60
2018-12-17T08:50:02.477Z,9.80
2018-12-17T08:51:02.454Z,10.20
2018-12-17T08:52:02.447Z,9.40
2018-12-17T08:53:02.474Z,10.50
2018-12-17T08:54:02.430Z,9.40
2018-12-17T08:55:02.420Z,10.10
2018-12-17T08:56:02.513Z,9.10
2018-12-17T08:57:02.402Z,9.60
2018-12-17T08:58:02.440Z,8.80
2018-12-17T08:59:02.368Z,9.60
2018-12-17T09:00:02.367Z,9.30
2018-12-17T09:01:02.379Z,10.00
2018-12-17T09:02:02.337Z,9.00
2018-12-17T09:03:02.328Z,10.70
2018-12-17T09:04:02.344Z,10.70
2018-12-17T09:05:02.306Z,9.40
2018-12-17T09:06:02.318Z,10.50
2018-12-17T09:07:02.295Z,10.10
2018-12-17T09:08:02.286Z,10.30
2018-12-17T09:09:02.378Z,14.70
2018-12-17T09:10:02.264Z,10.70
2018-12-17T09:11:02.590Z,9.60
2018-12-17T09:12:02.232Z,10.00
2018-12-17T09:13:02.222Z,10.00
2018-12-17T09:14:02.221Z,10.40
2018-12-17T09:15:02.396Z,9.50
2018-12-17T09:16:02.189Z,9.70
2018-12-17T09:17:02.201Z,9.60
2018-12-17T09:18:02.173Z,8.60
2018-12-17T09:19:02.161Z,9.70
2018-12-17T09:20:02.181Z,9.70
2018-12-17T09:21:02.141Z,10.70
2018-12-17T09:22:02.124Z,10.20
2018-12-17T09:23:02.116Z,10.00
2018-12-17T09:24:02.103Z,9.40
2018-12-17T09:25:02.128Z,9.60
2018-12-17T09:26:02.102Z,9.00
2018-12-17T09:27:02.076Z,10.10
2018-12-17T09:28:02.066Z,9.90
2018-12-17T09:29:02.055Z,10.20
2018-12-17T09:30:02.040Z,10.10
2018-12-17T09:31:02.047Z,10.60
2018-12-17T09:32:02.026Z,9.70
2018-12-17T09:33:02.012Z,10.30
2018-12-17T09:34:01.997Z,9.60
2018-12-17T09:35:01.990Z,9.60
2018-12-17T09:36:02.007Z,10.30
2018-12-17T09:37:01.988Z,9.30
2018-12-17T09:38:01.967Z,9.00
2018-12-17T09:39:01.951Z,9.80
2018-12-17T09:40:01.941Z,10.40
2018-12-17T09:41:01.950Z,10.40
2018-12-17T09:42:01.913Z,10.40
2018-12-17T09:43:01.900Z,9.90
2018-12-17T09:44:01.892Z,9.40
2018-12-17T09:45:01.878Z,9.90
2018-12-17T09:46:01.909Z,11.00
2018-12-17T09:47:01.864Z,9.80
2018-12-17T09:48:01.846Z,10.10
2018-12-17T09:49:01.877Z,10.80
2018-12-17T09:50:01.871Z,9.90
2018-12-17T09:51:01.893Z,10.70
2018-12-17T09:52:01.833Z,10.50
2018-12-17T09:53:01.806Z,9.80
2018-12-17T09:54:01.789Z,9.80
2018-12-17T09:55:01.774Z,9.90
2018-12-17T09:56:01.763Z,10.60
2018-12-17T09:57:01.782Z,10.10
2018-12-17T09:58:01.747Z,9.50
2018-12-17T09:59:01.735Z,10.80
2018-12-17T10:00:01.745Z,10.80
2018-12-17T10:01:01.719Z,10.90
2018-12-17T10:02:01.698Z,9.90
2018-12-17T10:03:01.728Z,10.70
2018-12-17T10:04:01.685Z,10.10
2018-12-17T10:05:01.674Z,10.70
2018-12-17T10:06:01.662Z,10.80
2018-12-17T10:07:01.645Z,9.90
2018-12-17T10:08:01.638Z,10.50
2018-12-17T10:09:01.651Z,9.80
2018-12-17T10:10:01.618Z,10.50
2018-12-17T10:11:01.609Z,9.80
2018-12-17T10:12:01.637Z,10.30
2018-12-17T10:13:01.599Z,10.40
2018-12-17T10:14:01.601Z,10.70
2018-12-17T10:15:01.581Z,10.50
2018-12-17T10:16:01.549Z,9.80
2018-12-17T10:17:01.545Z,9.80
2018-12-17T10:18:01.544Z,10.50
2018-12-17T10:19:01.525Z,10.60
2018-12-17T10:20:01.537Z,10.90
2018-12-17T10:21:01.495Z,11.10
2018-12-17T10:22:01.495Z,9.70
2018-12-17T10:23:01.493Z,9.90
2018-12-17T10:24:01.471Z,10.50
2018-12-17T10:25:01.536Z,10.30
2018-12-17T10:26:01.464Z,9.70
2018-12-17T10:27:01.435Z,10.10
2018-12-17T10:28:01.421Z,9.30
2018-12-17T10:29:01.459Z,10.30
2018-12-17T10:30:01.411Z,9.80
2018-12-17T10:31:01.422Z,10.40
2018-12-17T10:32:01.422Z,10.10
2018-12-17T10:33:01.376Z,10.80
2018-12-17T10:34:01.356Z,9.70
2018-12-17T10:35:01.361Z,10.40
2018-12-17T10:36:01.343Z,10.80
2018-12-17T10:37:01.356Z,10.10
2018-12-17T10:38:01.317Z,10.30
2018-12-17T10:39:01.320Z,11.00
2018-12-17T10:40:01.316Z,11.50
2018-12-17T10:41:01.286Z,10.10
2018-12-17T10:42:01.317Z,9.90
2018-12-17T10:43:01.271Z,10.90
2018-12-17T10:44:01.273Z,10.20
2018-12-17T10:45:01.248Z,10.80
2018-12-17T10:46:01.231Z,10.10
2018-12-17T10:47:01.251Z,9.90
2018-12-17T10:48:01.208Z,9.50
2018-12-17T10:49:01.216Z,9.80
2018-12-17T10:50:01.207Z,9.70
2018-12-17T10:51:01.186Z,9.70
2018-12-17T10:52:01.187Z,10.50
2018-12-17T10:53:01.159Z,9.90
2018-12-17T10:54:01.168Z,9.80
2018-12-17T10:55:01.145Z,11.30
2018-12-17T10:56:01.134Z,10.50
2018-12-17T10:57:01.148Z,10.00
2018-12-17T10:58:01.102Z,10.80
2018-12-17T10:59:01.091Z,9.80
2018-12-17T11:00:01.081Z,9.80
2018-12-17T11:01:01.074Z,10.60
2018-12-17T11:02:01.101Z,10.80
2018-12-17T11:03:01.085Z,10.40
2018-12-17T11:04:01.045Z,11.40
2018-12-17T11:05:01.033Z,10.80
2018-12-17T11:06:01.019Z,12.50
2018-12-17T11:07:01.012Z,11.00
2018-12-17T11:08:01.024Z,11.30
2018-12-17T11:09:00.990Z,11.80
2018-12-17T11:10:00.974Z,12.60
2018-12-17T11:11:00.963Z,12.00
2018-12-17T11:12:00.974Z,11.40
2018-12-17T11:13:00.959Z,11.30
2018-12-17T11:14:00.987Z,11.40
2018-12-17T11:15:00.925Z,11.60
2018-12-17T11:16:00.918Z,11.40
2018-12-17T11:17:00.911Z,12.50
2018-12-17T11:18:00.894Z,10.70
2018-12-17T11:19:00.878Z,10.80
2018-12-17T11:20:00.902Z,11.00
2018-12-17T11:21:00.872Z,10.60
2018-12-17T11:22:00.872Z,10.20
2018-12-17T11:23:00.859Z,11.30
2018-12-17T11:24:00.832Z,10.50
2018-12-17T11:25:00.857Z,10.90
2018-12-17T11:26:00.810Z,10.50
2018-12-17T11:27:00.815Z,10.70
2018-12-17T11:28:00.811Z,10.10
2018-12-17T11:29:00.785Z,10.80
2018-12-17T11:30:00.773Z,11.30
2018-12-17T11:31:00.798Z,11.10
2018-12-17T11:32:00.761Z,10.40
2018-12-17T11:33:00.735Z,10.70
2018-12-17T11:34:00.738Z,10.40
2018-12-17T11:35:00.724Z,10.00
2018-12-17T11:36:00.710Z,10.60
2018-12-17T11:37:00.732Z,10.50
2018-12-17T11:38:00.679Z,11.60
2018-12-17T11:39:00.688Z,10.60
2018-12-17T11:40:00.666Z,11.20
2018-12-17T11:41:00.656Z,11.30
2018-12-17T11:42:00.644Z,10.80
2018-12-17T11:43:00.666Z,10.70
2018-12-17T11:44:00.630Z,10.90
2018-12-17T11:45:00.613Z,11.90
2018-12-17T11:46:00.602Z,11.10
2018-12-17T11:47:00.595Z,10.90
2018-12-17T11:48:00.615Z,10.40
2018-12-17T11:49:00.573Z,11.30
2018-12-17T11:50:00.577Z,11.60
2018-12-17T11:51:00.550Z,12.20
2018-12-17T11:52:01.313Z,13.60
2018-12-17T11:53:00.535Z,14.60
2018-12-17T11:54:00.550Z,14.30
2018-12-17T11:55:00.577Z,12.30
2018-12-17T11:56:00.502Z,11.50
2018-12-17T11:57:00.479Z,10.50
2018-12-17T11:58:00.477Z,10.90
2018-12-17T11:59:00.487Z,10.20
2018-12-17T12:00:00.455Z,10.90
2018-12-17T12:01:00.453Z,11.40
2018-12-17T12:02:00.434Z,10.40
2018-12-17T12:03:00.416Z,10.10
2018-12-17T12:04:00.430Z,10.80
2018-12-17T12:05:00.393Z,10.90
2018-12-17T12:06:00.391Z,10.40
2018-12-17T12:07:00.380Z,9.80
2018-12-17T12:08:00.389Z,10.60
2018-12-17T12:09:00.355Z,9.80
2018-12-17T12:10:00.341Z,10.60
2018-12-17T12:11:00.331Z,10.60
2018-12-17T12:12:00.324Z,10.30
2018-12-17T12:13:00.367Z,11.00
2018-12-17T12:14:00.301Z,10.50
2018-12-17T12:15:00.318Z,10.90
2018-12-17T12:16:00.279Z,11.10
2018-12-17T12:17:00.270Z,11.80
2018-12-17T12:18:00.264Z,10.40
2018-12-17T12:19:00.267Z,11.10
2018-12-17T12:20:00.247Z,10.70
2018-12-17T12:21:00.233Z,11.10
2018-12-17T12:22:00.224Z,11.70
2018-12-17T12:23:00.202Z,11.50
2018-12-17T12:24:00.213Z,12.00
2018-12-17T12:25:00.202Z,10.70
2018-12-17T12:26:00.199Z,11.00
2018-12-17T12:27:00.169Z,11.40
2018-12-17T12:28:00.148Z,10.20
2018-12-17T12:29:00.133Z,10.50
2018-12-17T12:30:00.131Z,11.20
2018-12-17T12:31:00.598Z,11.60
2018-12-17T12:32:00.108Z,11.50
2018-12-17T12:33:00.095Z,11.30
2018-12-17T12:34:00.082Z,11.10
2018-12-17T12:35:00.075Z,11.20
2018-12-17T12:36:00.092Z,11.50
2018-12-17T12:37:00.050Z,10.90
2018-12-17T12:38:00.046Z,11.20
2018-12-17T12:39:00.032Z,10.40
2018-12-17T12:40:00.021Z,11.00
2018-12-17T12:41:00.012Z,11.60
2018-12-17T12:42:00.017Z,10.60
2018-12-17T12:42:59.985Z,10.40
2018-12-17T12:43:59.983Z,10.90
2018-12-17T12:44:59.970Z,10.40
2018-12-17T12:45:59.952Z,10.50
2018-12-17T12:46:59.964Z,9.90
2018-12-17T12:47:59.930Z,10.20
2018-12-17T12:48:59.922Z,11.30
2018-12-17T12:49:59.916Z,10.70
2018-12-17T12:50:59.905Z,11.70
2018-12-17T12:51:59.931Z,11.20
2018-12-17T12:52:59.897Z,9.80
2018-12-17T12:53:59.876Z,10.50
2018-12-17T12:54:59.855Z,10.80
2018-12-17T12:55:59.849Z,10.80
2018-12-17T12:57:00.767Z,10.80
2018-12-17T12:58:03.630Z,9.70
2018-12-17T12:58:59.820Z,10.70
2018-12-17T12:59:59.804Z,9.80